Time;durP1;ratioP1;P1;durP2;ratioP2;P2;SDS_P1;SDS_P2;PMS_P1;PMS_P2;Temp;Humidity;BMP_temperature;BMP_pressure;BME280_temperature;BME280_humidity;BME280_pressure;Samples;Min_cycle;Max_cycle;Signal;HPM_P1;HPM_P2
2022/08/19 00:00:28;;;;;;;3.35;2.80;;;;;;;17.64;79.02;101267.94;5076128;28;19963;-86
2022/08/19 00:02:54;;;;;;;3.23;2.90;;;;;;;17.60;79.16;101267.22;5076221;28;20028;-86
2022/08/19 00:05:20;;;;;;;3.40;3.10;;;;;;;17.59;79.08;101263.75;5075958;28;20504;-86
2022/08/19 00:07:46;;;;;;;3.72;3.20;;;;;;;17.57;79.08;101262.94;5075784;28;20029;-86
2022/08/19 00:10:14;;;;;;;3.77;3.10;;;;;;;17.55;79.25;101256.91;5076088;28;20039;-86
2022/08/19 00:12:40;;;;;;;3.45;3.08;;;;;;;17.52;78.89;101258.78;5076111;28;20111;-86
2022/08/19 00:15:12;;;;;;;3.75;2.85;;;;;;;17.48;79.37;101265.91;5074685;28;20120;-86
2022/08/19 00:17:43;;;;;;;3.33;2.78;;;;;;;17.42;79.23;101263.50;5062684;28;20025;-86
2022/08/19 00:20:10;;;;;;;2.95;2.63;;;;;;;17.37;79.33;101261.06;5055305;28;20049;-86
2022/08/19 00:22:37;;;;;;;2.80;2.60;;;;;;;17.33;79.37;101262.09;5055579;28;20061;-86
2022/08/19 00:25:04;;;;;;;3.20;2.90;;;;;;;17.32;79.85;101260.41;5055301;28;20424;-86
2022/08/19 00:27:29;;;;;;;3.08;2.70;;;;;;;17.29;79.61;101261.34;5055338;28;20090;-86
2022/08/19 00:29:54;;;;;;;3.17;2.87;;;;;;;17.28;79.54;101259.63;5054872;28;20112;-86
2022/08/19 00:32:20;;;;;;;3.17;2.87;;;;;;;17.28;79.75;101261.41;5055596;28;20033;-86
2022/08/19 00:34:46;;;;;;;3.40;2.90;;;;;;;17.26;79.69;101260.59;5055420;28;20448;-86
2022/08/19 00:37:11;;;;;;;3.23;2.90;;;;;;;17.26;79.89;101264.09;5054817;28;20135;-86
2022/08/19 00:39:36;;;;;;;4.13;3.30;;;;;;;17.25;79.82;101261.50;5055121;28;20050;-85
2022/08/19 00:42:02;;;;;;;3.63;3.00;;;;;;;17.23;79.85;101263.31;5055624;28;20094;-86
2022/08/19 00:44:28;;;;;;;3.10;2.73;;;;;;;17.18;79.74;101258.25;5054376;28;20020;-86
2022/08/19 00:46:56;;;;;;;4.55;3.03;;;;;;;17.19;79.93;101264.38;5055012;28;20017;-86
2022/08/19 00:49:24;;;;;;;3.05;2.75;;;;;;;17.16;79.99;101265.34;5055383;28;20507;-86
2022/08/19 00:51:57;;;;;;;3.30;3.00;;;;;;;17.14;80.11;101265.38;5054972;28;20021;-85
2022/08/19 00:54:23;;;;;;;3.60;3.00;;;;;;;17.13;80.20;101270.69;5054932;28;20036;-86
2022/08/19 00:56:49;;;;;;;3.70;3.00;;;;;;;17.11;80.16;101262.88;5054731;28;20021;-86
2022/08/19 00:59:17;;;;;;;3.45;2.90;;;;;;;17.09;80.16;101262.09;5055205;28;20024;-86
2022/08/19 01:01:44;;;;;;;3.22;2.90;;;;;;;17.06;80.25;101259.56;5055061;28;20029;-86
2022/08/19 01:04:09;;;;;;;3.45;3.13;;;;;;;17.04;80.14;101271.88;5053795;28;20029;-86
2022/08/19 01:06:40;;;;;;;4.03;3.00;;;;;;;17.01;80.61;101263.25;5054985;28;20078;-86
2022/08/19 01:09:06;;;;;;;3.88;3.17;;;;;;;16.99;80.41;101260.72;5054950;28;20029;-86
2022/08/19 01:11:36;;;;;;;4.30;3.40;;;;;;;16.96;80.37;101269.50;5054796;28;20100;-86
2022/08/19 01:14:01;;;;;;;3.40;3.00;;;;;;;16.93;80.49;101264.38;5054322;28;20079;-86
2022/08/19 01:16:29;;;;;;;3.40;3.03;;;;;;;16.92;80.58;101272.28;5054664;28;20024;-86
2022/08/19 01:18:56;;;;;;;4.30;3.13;;;;;;;16.88;80.70;101271.53;5054172;28;20052;-86
2022/08/19 01:21:25;;;;;;;;;;;;;;;16.87;80.56;101269.81;5055208;28;20033;-85
2022/08/19 01:23:50;;;;;;;4.10;3.33;;;;;;;16.82;80.60;101267.34;5064588;28;19919;-86
2022/08/19 01:26:23;;;;;;;4.60;3.17;;;;;;;16.80;80.58;101256.06;5054487;28;20103;-86
2022/08/19 01:28:50;;;;;;;3.97;2.75;;;;;;;16.77;80.69;101256.19;5054330;28;20032;-86
2022/08/19 01:31:21;;;;;;;3.58;2.97;;;;;;;16.73;80.72;101265.06;5054399;28;20499;-86
2022/08/19 01:33:47;;;;;;;3.47;3.03;;;;;;;16.72;80.73;101263.34;5054381;28;20029;-86
2022/08/19 01:36:22;;;;;;;4.20;3.28;;;;;;;16.72;80.90;101259.88;5054073;28;20029;-86
2022/08/19 01:38:49;;;;;;;3.42;3.10;;;;;;;16.69;80.87;101268.69;5054291;28;20492;-86
2022/08/19 01:41:14;;;;;;;3.22;2.92;;;;;;;16.65;80.96;101256.63;5054027;28;20119;-86
2022/08/19 01:43:40;;;;;;;3.20;2.80;;;;;;;16.59;80.85;101259.41;5054508;28;20100;-86
2022/08/19 01:46:06;;;;;;;3.47;2.80;;;;;;;16.56;81.10;101262.13;5053733;28;20064;-86
2022/08/19 01:48:39;;;;;;;4.03;3.00;;;;;;;16.55;81.01;101258.69;5054276;28;20279;-86
2022/08/19 01:51:05;;;;;;;3.33;2.83;;;;;;;16.56;81.22;101254.28;5053582;28;20076;-86
2022/08/19 01:53:30;;;;;;;3.85;3.08;;;;;;;16.55;81.33;101256.06;5053041;28;20021;-86
2022/08/19 01:55:56;;;;;;;3.87;3.03;;;;;;;16.57;81.20;101266.47;5053894;28;20499;-86
2022/08/19 01:58:29;;;;;;;3.20;2.80;;;;;;;16.54;81.37;101259.56;5054404;28;20067;-86
2022/08/19 02:00:54;;;;;;;3.28;2.50;;;;;;;16.52;81.74;101264.00;5053408;28;20295;-86
2022/08/19 02:03:19;;;;;;;2.73;2.47;;;;;;;16.49;81.68;101267.59;5053954;28;20346;-86
2022/08/19 02:05:45;;;;;;;3.00;2.67;;;;;;;16.48;81.65;101265.03;5053916;28;20051;-86
2022/08/19 02:08:11;;;;;;;4.30;3.20;;;;;;;16.47;81.91;101269.41;5053239;28;20025;-86
2022/08/19 02:10:42;;;;;;;4.68;3.20;;;;;;;16.48;81.90;101273.75;5053687;28;20348;-86
2022/08/19 02:13:08;;;;;;;5.72;3.50;;;;;;;16.49;81.88;101270.22;5052947;28;20028;-87
2022/08/19 02:15:33;;;;;;;5.33;3.50;;;;;;;16.51;81.98;101284.13;5052800;28;20024;-86
2022/08/19 02:17:59;;;;;;;5.70;3.80;;;;;;;16.54;81.83;101284.94;5058325;28;20025;-86
2022/08/19 02:20:24;;;;;;;5.00;3.60;;;;;;;16.54;81.91;101288.41;5073289;28;20088;-87
2022/08/19 02:22:50;;;;;;;4.93;3.43;;;;;;;16.52;81.56;101277.97;5072731;28;20115;-87
2022/08/19 02:25:15;;;;;;;5.20;3.40;;;;;;;16.51;81.82;101278.88;5073446;28;20032;-87
2022/08/19 02:27:42;;;;;;;3.57;2.90;;;;;;;16.49;81.84;101278.06;5073328;28;20017;-86
2022/08/19 02:30:08;;;;;;;;;;;;;;;16.48;82.01;101281.59;5073207;28;20078;-86
2022/08/19 02:32:33;;;;;;;4.78;3.28;;;;;;;16.45;82.14;101283.47;5073425;28;19912;-86
2022/08/19 02:34:59;;;;;;;4.47;3.20;;;;;;;16.40;82.31;101291.47;5073141;28;20078;-86
2022/08/19 02:40:09;;;;;;;4.13;3.17;;;;;;;16.34;82.00;101299.53;5057222;28;20144;-87
2022/08/19 02:42:34;;;;;;;3.80;3.00;;;;;;;16.31;81.97;101297.03;5053219;28;20068;-87
2022/08/19 02:45:00;;;;;;;3.67;3.00;;;;;;;16.27;82.29;101285.75;5052738;28;20399;-87
2022/08/19 02:47:25;;;;;;;3.93;3.00;;;;;;;16.23;82.17;101294.66;5052947;28;20104;-87
2022/08/19 02:49:50;;;;;;;4.83;3.57;;;;;;;16.21;82.51;101296.44;5052439;28;20021;-87
2022/08/19 02:52:32;;;;;;;5.97;3.50;;;;;;;16.20;82.28;101302.59;5053677;28;20495;-87
2022/08/19 02:54:57;;;;;;;4.85;3.30;;;;;;;16.16;82.26;101306.19;5053042;28;20028;-87
2022/08/19 02:57:31;;;;;;;4.20;3.23;;;;;;;16.15;82.37;101305.34;5053781;28;20075;-87
2022/08/19 03:00:06;;;;;;;3.90;3.00;;;;;;;16.13;82.48;101303.69;5052473;28;20029;-85
2022/08/19 03:02:32;;;;;;;3.17;2.72;;;;;;;16.08;82.62;101305.59;5053312;28;20025;-87
2022/08/19 03:04:57;;;;;;;4.83;3.17;;;;;;;16.05;82.62;101303.94;5052226;28;20481;-87
2022/08/19 03:07:22;;;;;;;3.43;2.83;;;;;;;16.03;82.83;101293.53;5052549;28;20462;-86
2022/08/19 03:09:48;;;;;;;4.47;3.00;;;;;;;16.04;82.89;101291.75;5065722;28;20082;-87
2022/08/19 03:12:13;;;;;;;4.10;3.10;;;;;;;16.03;82.69;101293.53;5072848;28;20028;-87
2022/08/19 03:14:38;;;;;;;4.43;3.33;;;;;;;16.04;82.64;101289.13;5072765;28;20081;-86
2022/08/19 03:17:04;;;;;;;5.23;3.40;;;;;;;16.05;82.71;101290.84;5072085;28;20453;-87
2022/08/19 03:19:31;;;;;;;5.13;3.40;;;;;;;16.05;82.67;101303.94;5072496;28;20053;-87
2022/08/19 03:21:57;;;;;;;4.28;3.13;;;;;;;16.04;82.77;101307.44;5072749;28;20687;-87
2022/08/19 03:24:23;;;;;;;4.40;2.97;;;;;;;16.02;82.86;101296.16;5072238;28;20070;-86
2022/08/19 03:26:52;;;;;;;4.87;3.27;;;;;;;16.00;82.60;101293.59;5072418;28;20037;-85
2022/08/19 03:29:19;;;;;;;3.75;2.90;;;;;;;16.00;83.56;101296.22;5072773;28;20028;-87
2022/08/19 03:31:46;;;;;;;3.97;2.90;;;;;;;15.97;83.24;101292.84;5072131;28;20028;-86
2022/08/19 03:34:17;;;;;;;4.30;3.20;;;;;;;15.96;82.99;101298.97;5062607;28;20052;-87
2022/08/19 03:36:42;;;;;;;4.65;3.20;;;;;;;15.94;83.01;101299.00;5052903;28;20017;-87
2022/08/19 03:39:09;;;;;;;4.03;3.23;;;;;;;15.93;83.16;101296.44;5052213;28;20025;-87
2022/08/19 03:41:41;;;;;;;4.75;3.40;;;;;;;15.90;83.46;101295.63;5052294;28;20063;-87
2022/08/19 03:44:08;;;;;;;3.92;2.92;;;;;;;15.88;83.57;101286.13;5052081;28;20029;-87
2022/08/19 03:46:34;;;;;;;4.50;3.10;;;;;;;15.87;83.33;101274.81;5052666;28;20021;-87
2022/08/19 03:49:07;;;;;;;5.45;3.38;;;;;;;15.90;83.55;101281.69;5052570;28;20032;-87
2022/08/19 03:51:38;;;;;;;4.82;3.40;;;;;;;15.92;83.38;101289.50;5052691;28;20025;-87
2022/08/19 03:54:06;;;;;;;4.47;3.17;;;;;;;15.92;83.37;101292.13;5051771;28;20017;-87
2022/08/19 03:56:37;;;;;;;5.78;3.60;;;;;;;15.90;83.36;101285.16;5052562;28;20152;-87
2022/08/19 03:59:04;;;;;;;5.38;3.50;;;;;;;15.91;83.32;101278.19;5052372;28;20465;-87
2022/08/19 04:01:30;;;;;;;4.80;3.22;;;;;;;15.86;83.26;101278.31;5052462;28;20492;-87
2022/08/19 04:03:57;;;;;;;6.07;3.83;;;;;;;15.86;83.58;101285.31;5052256;28;20029;-87
2022/08/19 04:06:28;;;;;;;5.57;3.60;;;;;;;15.83;83.55;101283.63;5053183;28;20032;-87
2022/08/19 04:08:54;;;;;;;6.30;3.50;;;;;;;15.83;83.56;101291.47;5071841;28;20094;-86
2022/08/19 04:11:36;;;;;;;6.25;3.90;;;;;;;15.83;83.88;101285.34;5072636;28;20090;-87
2022/08/19 04:14:02;;;;;;;5.22;3.50;;;;;;;15.79;84.07;101279.38;5072072;28;20095;-88
2022/08/19 04:16:28;;;;;;;4.40;3.10;;;;;;;15.78;83.76;101277.66;5072671;28;20098;-87
2022/08/19 04:18:55;;;;;;;4.68;3.22;;;;;;;15.75;84.04;101283.84;5071749;28;20108;-87
2022/08/19 04:21:38;;;;;;;6.03;3.92;;;;;;;15.72;83.76;101277.84;5071995;28;20412;-88
2022/08/19 04:24:08;;;;;;;6.20;3.80;;;;;;;15.72;83.89;101286.53;5071735;28;20147;-88
2022/08/19 04:26:36;;;;;;;5.82;3.85;;;;;;;15.71;84.10;101287.44;5072568;28;20036;-88
2022/08/19 04:29:09;;;;;;;6.68;4.10;;;;;;;15.69;84.07;101281.41;5071919;28;20445;-88
2022/08/19 04:31:35;;;;;;;6.63;4.00;;;;;;;15.68;84.66;101282.31;5072291;28;20077;-88
2022/08/19 04:34:10;;;;;;;7.50;4.17;;;;;;;15.67;83.97;101277.13;5072057;28;20056;-87
2022/08/19 04:36:37;;;;;;;6.30;3.75;;;;;;;15.67;84.22;101283.22;5052993;28;20041;-88
2022/08/19 04:39:09;;;;;;;6.22;3.92;;;;;;;15.65;84.31;101277.16;5055228;28;20031;-87
2022/08/19 04:44:32;;;;;;;8.23;4.30;;;;;;;15.62;84.28;101279.03;5056369;28;20043;-87
2022/08/19 04:47:05;;;;;;;6.93;4.07;;;;;;;15.59;84.35;101275.59;5055373;28;20028;-88
2022/08/19 04:49:31;;;;;;;8.85;4.95;;;;;;;15.57;84.14;101282.63;5055171;28;20063;-87
2022/08/19 04:52:08;;;;;;;7.70;4.60;;;;;;;15.59;84.18;101278.22;5055666;28;20053;-87
2022/08/19 04:54:33;;;;;;;9.68;5.03;;;;;;;15.62;84.28;101281.66;5054827;28;20078;-87
2022/08/19 04:56:59;;;;;;;9.57;4.83;;;;;;;15.64;84.07;101295.53;5054560;28;20021;-86
2022/08/19 04:59:24;;;;;;;8.60;4.63;;;;;;;15.66;84.06;101291.97;5056238;28;20469;-87
2022/08/19 05:01:49;;;;;;;8.73;5.03;;;;;;;15.68;83.88;101291.91;5054533;28;20061;-87
2022/08/19 05:04:17;;;;;;;7.63;4.60;;;;;;;15.68;84.08;101297.16;5061187;28;20031;-87
2022/08/19 05:06:43;;;;;;;9.27;5.10;;;;;;;15.68;83.97;101300.63;5055659;28;20059;-87
2022/08/19 05:09:08;;;;;;;7.83;4.43;;;;;;;15.66;83.69;101297.22;5054845;28;20025;-87
2022/08/19 05:11:38;;;;;;;7.20;4.50;;;;;;;15.66;84.07;101302.44;5054428;28;20033;-87
2022/08/19 05:14:03;;;;;;;7.43;4.50;;;;;;;15.66;84.11;101307.66;5055663;28;20036;-87
2022/08/19 05:16:29;;;;;;;6.87;4.57;;;;;;;15.67;83.96;101311.13;5055216;28;20096;-87
2022/08/19 05:24:26;;;;;;;7.10;4.20;;;;;;;15.62;84.63;101320.88;5054933;28;20503;-87
2022/08/19 05:26:56;;;;;;;7.80;4.63;;;;;;;15.65;84.30;101329.50;5055045;28;20423;-87
2022/08/19 05:29:22;;;;;;;8.45;4.72;;;;;;;15.71;84.51;101331.09;5054663;28;20029;-87
2022/08/19 05:31:49;;;;;;;7.38;4.40;;;;;;;15.77;84.46;101335.28;5054277;28;20035;-87
2022/08/19 05:34:15;;;;;;;6.95;4.00;;;;;;;15.80;84.35;101338.66;5070671;28;20028;-87
2022/08/19 05:36:44;;;;;;;5.60;3.70;;;;;;;15.85;84.84;101336.81;5074634;28;20464;-87
2022/08/19 05:39:15;;;;;;;5.47;3.70;;;;;;;15.88;84.61;101349.78;5074369;28;20464;-85
2022/08/19 05:41:46;;;;;;;6.03;3.92;;;;;;;15.95;85.28;101347.00;5074858;28;20111;-86
2022/08/19 05:44:11;;;;;;;7.28;4.22;;;;;;;15.97;86.17;101350.44;5074680;28;20221;-88
2022/08/19 05:46:38;;;;;;;6.57;4.10;;;;;;;16.00;86.24;101345.09;5069161;28;20067;-89
2022/08/19 05:49:06;;;;;;;5.45;3.63;;;;;;;16.04;85.07;101344.94;5073555;28;20449;-90
2022/08/19 05:51:32;;;;;;;7.57;4.30;;;;;;;16.13;85.17;101349.06;5075196;28;20043;-86
2022/08/19 05:54:07;;;;;;;5.57;3.80;;;;;;;16.20;85.21;101350.59;5073580;28;20032;-86
2022/08/19 05:56:36;;;;;;;7.53;4.40;;;;;;;16.29;84.91;101353.84;5073532;28;20479;-86
2022/08/19 05:59:02;;;;;;;6.88;3.90;;;;;;;16.40;84.87;101349.13;5073626;28;20025;-86
2022/08/19 06:01:28;;;;;;;7.15;4.00;;;;;;;16.51;85.34;101346.13;5073459;28;20457;-86
2022/08/19 06:04:09;;;;;;;10.33;5.37;;;;;;;16.57;85.80;101337.22;5073017;28;20028;-86
2022/08/19 06:06:35;;;;;;;8.75;4.85;;;;;;;16.64;85.70;101338.75;5073356;28;20025;-86
2022/08/19 06:09:05;;;;;;;8.23;4.60;;;;;;;16.66;85.53;101329.91;5073783;28;20108;-86
2022/08/19 06:11:49;;;;;;;10.23;5.30;;;;;;;16.74;84.91;101327.06;5073730;28;20029;-86
2022/08/19 06:14:18;;;;;;;10.68;5.30;;;;;;;16.80;85.25;101329.44;5073395;28;20035;-86
2022/08/19 06:16:59;;;;;;;8.82;4.82;;;;;;;16.86;84.73;101312.66;5073429;28;20028;-85
2022/08/19 06:19:25;;;;;;;8.52;4.32;;;;;;;16.95;85.69;101325.47;5073183;28;20501;-85
2022/08/19 06:21:52;;;;;;;8.33;4.47;;;;;;;17.00;86.55;101320.06;5071381;28;20035;-86
2022/08/19 06:24:35;;;;;;;9.45;4.72;;;;;;;17.03;86.20;101319.97;5073202;28;20029;-85
2022/08/19 06:27:00;;;;;;;8.35;4.50;;;;;;;17.09;85.21;101319.78;5073643;28;20100;-85
2022/08/19 06:29:27;;;;;;;15.97;7.90;;;;;;;17.16;85.94;101316.94;5072615;28;20107;-86
2022/08/19 06:32:03;;;;;;;18.52;9.60;;;;;;;17.21;86.33;101322.88;5072466;28;20028;-89
2022/08/19 06:34:46;;;;;;;16.40;8.10;;;;;;;17.25;85.65;101319.22;5073570;28;20048;-89
2022/08/19 06:37:11;;;;;;;12.85;6.22;;;;;;;17.31;85.59;101323.38;5073605;28;20074;-86
2022/08/19 06:39:55;;;;;;;11.33;5.63;;;;;;;17.38;86.66;101319.66;5073347;28;20024;-86
2022/08/19 06:42:20;;;;;;;15.05;6.95;;;;;;;17.42;85.24;101319.47;5072596;28;20028;-86
2022/08/19 06:44:49;;;;;;;12.87;6.40;;;;;;;17.46;85.79;101314.97;5073241;28;20453;-84
2022/08/19 06:47:19;;;;;;;9.60;5.15;;;;;;;17.55;85.83;101319.88;5072761;28;20543;-83
2022/08/19 06:49:44;;;;;;;14.88;6.95;;;;;;;17.65;86.67;101325.66;5072949;28;20138;-83
2022/08/19 06:52:14;;;;;;;16.70;7.60;;;;;;;17.74;86.06;101329.69;5072635;28;20431;-83
2022/08/19 06:54:40;;;;;;;15.38;7.80;;;;;;;17.82;85.51;101327.63;5072974;28;20439;-85
2022/08/19 06:57:07;;;;;;;12.38;6.40;;;;;;;17.90;85.59;101330.81;5070435;28;20536;-85
2022/08/19 06:59:33;;;;;;;15.88;7.18;;;;;;;18.04;86.29;101332.09;5072601;28;20070;-84
2022/08/19 07:02:00;;;;;;;13.13;6.43;;;;;;;18.14;85.62;101324.69;5072065;28;20362;-84
2022/08/19 07:04:28;;;;;;;18.83;9.70;;;;;;;18.75;85.35;101328.38;5071952;28;20044;-80
2022/08/19 07:07:11;;;;;;;14.40;6.97;;;;;;;20.16;84.08;101330.06;5072370;28;20028;-81
2022/08/19 07:09:38;;;;;;;11.50;5.70;;;;;;;21.65;79.93;101333.16;5072169;28;20073;-82
2022/08/19 07:12:06;;;;;;;9.45;5.20;;;;;;;22.10;77.69;101330.66;5072678;28;20025;-80
2022/08/19 07:14:32;;;;;;;15.55;7.35;;;;;;;21.91;74.95;101329.06;5072496;28;20476;-86
2022/08/19 07:16:57;;;;;;;10.70;5.60;;;;;;;21.60;76.39;101336.03;5072659;28;20040;-88
2022/08/19 07:19:26;;;;;;;7.70;4.50;;;;;;;21.47;77.25;101334.97;5073412;28;20090;-85
2022/08/19 07:21:52;;;;;;;11.88;5.78;;;;;;;21.23;75.53;101340.59;5073547;28;20460;-89
2022/08/19 07:24:20;;;;;;;11.68;6.10;;;;;;;20.85;76.83;101348.69;5073260;28;20191;-89
2022/08/19 07:26:46;;;;;;;12.23;6.38;;;;;;;20.52;76.98;101352.94;5072745;28;20035;-88
2022/08/19 07:29:11;;;;;;;10.13;5.50;;;;;;;20.27;77.65;101356.75;5073176;28;20477;-90
2022/08/19 07:31:37;;;;;;;14.15;6.97;;;;;;;20.04;78.63;101358.69;5072458;28;20090;-85
2022/08/19 07:34:08;;;;;;;13.13;6.30;;;;;;;19.83;78.72;101355.25;5072462;28;20029;-85
2022/08/19 07:36:36;;;;;;;8.82;5.03;;;;;;;19.68;78.88;101350.69;5072398;28;20028;-81
2022/08/19 07:39:13;;;;;;;17.10;8.75;;;;;;;19.56;80.36;101352.09;5071541;28;20042;-82
2022/08/19 07:41:39;;;;;;;17.30;8.82;;;;;;;19.44;80.23;101348.25;5072156;28;20056;-83
2022/08/19 07:44:07;;;;;;;15.07;7.65;;;;;;;19.42;81.07;101355.34;5072482;28;20093;-83
2022/08/19 07:46:34;;;;;;;16.00;8.00;;;;;;;19.41;80.76;101364.16;5072004;28;20029;-82
2022/08/19 07:49:00;;;;;;;12.85;6.60;;;;;;;19.42;80.55;101366.72;5063756;28;20032;-81
2022/08/19 07:51:28;;;;;;;12.93;6.50;;;;;;;19.43;80.52;101372.84;5064000;28;20021;-81
2022/08/19 07:53:53;;;;;;;10.80;5.93;;;;;;;19.43;80.42;101384.22;5059615;28;20033;-83
2022/08/19 07:56:20;;;;;;;11.13;6.07;;;;;;;19.45;80.63;101378.91;5052058;28;20033;-82
2022/08/19 07:58:48;;;;;;;10.38;6.00;;;;;;;19.50;80.92;101370.81;5056454;28;20361;-82
2022/08/19 08:01:17;;;;;;;11.07;6.38;;;;;;;19.59;81.79;101379.13;5060473;28;20032;-82
2022/08/19 08:09:23;;;;;;;13.75;7.43;;;;;;;19.73;80.79;101383.78;5070433;28;20615;-83
2022/08/19 08:11:52;;;;;;;13.68;7.10;;;;;;;19.76;81.12;101380.16;5071957;28;20043;-83
2022/08/19 08:14:30;;;;;;;15.93;8.10;;;;;;;19.78;80.66;101378.31;5062539;28;20461;-83
2022/08/19 08:16:57;;;;;;;13.38;7.38;;;;;;;19.79;80.90;101385.28;5054874;28;20487;-84
2022/08/19 08:19:24;;;;;;;19.88;11.98;;;;;;;19.82;81.32;101390.41;5057626;28;20041;-83
2022/08/19 08:21:50;;;;;;;19.55;11.38;;;;;;;19.84;81.46;101388.56;5075110;28;20392;-83
2022/08/19 08:24:16;;;;;;;19.08;10.85;;;;;;;19.84;80.84;101390.34;5059415;28;20029;-83
2022/08/19 08:26:43;;;;;;;20.85;12.07;;;;;;;19.80;80.65;101389.66;5073283;28;20500;-85
2022/08/19 08:29:10;;;;;;;19.08;11.18;;;;;;;19.79;81.45;101394.97;5074893;28;20479;-86
2022/08/19 08:31:35;;;;;;;15.27;9.35;;;;;;;19.80;80.99;101397.53;5065864;28;20028;-86
2022/08/19 08:34:01;;;;;;;15.60;8.80;;;;;;;19.85;80.84;101400.81;5073997;28;20030;-86
2022/08/19 08:36:27;;;;;;;14.00;8.43;;;;;;;19.89;80.76;101401.56;5073816;28;20103;-85
2022/08/19 08:38:52;;;;;;;15.40;8.68;;;;;;;19.99;80.95;101407.25;5072981;28;20031;-86
2022/08/19 08:41:44;;;;;;;17.27;9.70;;;;;;;20.05;80.94;101409.59;5074401;28;20107;-86
2022/08/19 08:44:18;;;;;;;18.67;11.07;;;;;;;20.02;80.58;101412.41;5073288;28;20522;-86
2022/08/19 08:46:51;;;;;;;15.80;9.48;;;;;;;19.98;80.33;101419.59;5056483;28;20100;-85
2022/08/19 08:49:24;;;;;;;22.05;14.48;;;;;;;19.91;79.99;101423.41;5058381;28;20035;-86
2022/08/19 08:52:00;;;;;;;20.02;12.25;;;;;;;19.90;80.26;101427.84;5059335;28;20060;-83
2022/08/19 08:54:30;;;;;;;;;;;;;;;19.94;80.36;101417.13;5067477;28;20037;-85
2022/08/19 08:56:56;;;;;;;18.73;11.57;;;;;;;20.06;79.97;101417.44;5071188;28;19966;-87
2022/08/19 08:59:32;;;;;;;20.80;12.68;;;;;;;20.16;80.25;101411.75;5064966;28;20048;-86
2022/08/19 09:01:57;;;;;;;21.38;13.45;;;;;;;20.22;80.18;101414.09;5064704;28;20086;-86
2022/08/19 09:04:22;;;;;;;21.93;14.70;;;;;;;20.24;80.05;101408.75;5061480;28;20037;-87
2022/08/19 09:07:03;;;;;;;21.37;13.97;;;;;;;20.25;79.90;101407.84;5070586;28;20104;-86
2022/08/19 09:09:40;;;;;;;18.50;10.70;;;;;;;20.32;79.64;101403.97;5060962;28;20544;-85
2022/08/19 09:12:25;;;;;;;20.70;13.38;;;;;;;20.43;79.08;101414.03;5063230;28;20028;-85
2022/08/19 09:14:57;;;;;;;17.33;10.75;;;;;;;20.50;79.52;101413.63;5072244;28;20412;-84
2022/08/19 09:17:33;;;;;;;18.00;10.90;;;;;;;20.64;79.33;101409.47;5072312;28;20029;-84
2022/08/19 09:20:07;;;;;;;19.13;12.30;;;;;;;20.67;79.28;101420.72;5056029;28;20114;-84
2022/08/19 09:22:33;;;;;;;21.40;13.85;;;;;;;20.70;78.34;101418.88;5055709;28;20043;-84
2022/08/19 09:24:59;;;;;;;20.07;12.30;;;;;;;20.74;78.58;101421.31;5064690;28;20020;-84
2022/08/19 09:27:25;;;;;;;18.80;11.50;;;;;;;20.76;78.49;101419.44;5059122;28;20459;-90
2022/08/19 09:29:53;;;;;;;16.73;10.20;;;;;;;20.78;78.24;101428.16;5055369;28;20032;-85
2022/08/19 09:32:19;;;;;;;19.45;12.15;;;;;;;20.75;78.23;101424.81;5065630;28;20021;-88
2022/08/19 09:34:45;;;;;;;17.00;10.05;;;;;;;20.70;78.37;101432.06;5074554;28;20027;-85
2022/08/19 09:37:13;;;;;;;18.03;10.70;;;;;;;20.61;78.20;101430.69;5075054;28;20025;-90
2022/08/19 09:39:40;;;;;;;19.42;11.40;;;;;;;20.55;77.96;101431.00;5074618;28;20021;-87
2022/08/19 09:42:11;;;;;;;16.25;9.82;;;;;;;20.53;78.61;101433.75;5074415;28;20020;-86
2022/08/19 09:44:36;;;;;;;11.80;7.57;;;;;;;20.60;79.04;101434.31;5073870;28;20035;-85
2022/08/19 09:47:03;;;;;;;16.43;9.50;;;;;;;20.72;79.08;101427.56;5074241;28;20020;-87
2022/08/19 09:49:28;;;;;;;19.05;11.50;;;;;;;20.88;78.11;101419.78;5074363;28;20024;-86
2022/08/19 09:51:55;;;;;;;15.63;8.87;;;;;;;21.01;78.17;101426.16;5071475;28;20078;-86
2022/08/19 09:54:21;;;;;;;13.05;8.02;;;;;;;21.10;77.95;101425.69;5074130;28;20064;-87
2022/08/19 09:56:47;;;;;;;12.00;7.47;;;;;;;21.18;77.65;101435.00;5074450;28;20099;-86
2022/08/19 09:59:12;;;;;;;14.77;8.10;;;;;;;21.24;77.51;101437.34;5073451;28;20414;-88
2022/08/19 10:01:38;;;;;;;17.53;9.63;;;;;;;21.23;76.80;101436.47;5073630;28;20025;-91
2022/08/19 10:04:08;;;;;;;20.00;12.63;;;;;;;21.13;76.64;101438.72;5073891;28;20028;-86
2022/08/19 10:06:34;;;;;;;18.40;10.98;;;;;;;21.08;76.74;101446.00;5074068;28;20491;-87
2022/08/19 10:08:59;;;;;;;;;;;;;;;21.12;77.22;101444.06;5073479;28;20426;-84
2022/08/19 10:11:26;;;;;;;;;;;;;;;21.18;76.80;101451.69;5074131;28;19920;-85
2022/08/19 10:13:51;;;;;;;18.05;10.93;;;;;;;21.17;76.41;101444.72;5073314;28;20304;-85
2022/08/19 10:16:22;;;;;;;17.30;10.18;;;;;;;21.16;76.84;101439.53;5061158;28;20091;-84
2022/08/19 10:18:48;;;;;;;14.80;8.80;;;;;;;21.20;76.82;101431.38;5052888;28;20036;-83
2022/08/19 10:21:17;;;;;;;14.55;8.30;;;;;;;21.30;77.09;101439.66;5053980;28;20393;-83
2022/08/19 10:23:46;;;;;;;17.92;10.68;;;;;;;21.44;75.93;101434.53;5053332;28;20024;-81
2022/08/19 10:26:20;;;;;;;17.52;10.30;;;;;;;21.57;76.12;101426.78;5053148;28;20023;-80
2022/08/19 10:28:46;;;;;;;18.35;10.90;;;;;;;21.64;76.21;101426.53;5047034;28;20029;-81
2022/08/19 10:31:20;;;;;;;16.40;9.45;;;;;;;21.70;75.72;101426.19;5053007;28;20031;-81
2022/08/19 10:33:47;;;;;;;16.38;9.73;;;;;;;21.74;74.64;101433.88;5053131;28;20029;-81
2022/08/19 10:36:17;;;;;;;16.73;9.88;;;;;;;21.77;75.76;101429.34;5052215;28;20037;-81
2022/08/19 10:38:45;;;;;;;15.85;9.35;;;;;;;21.74;75.25;101435.66;5053435;28;20104;-81
2022/08/19 10:41:19;;;;;;;15.68;8.98;;;;;;;21.73;75.98;101420.75;5053586;28;20039;-81
2022/08/19 10:43:46;;;;;;;14.50;8.35;;;;;;;21.76;74.75;101431.16;5053348;28;20025;-81
2022/08/19 10:46:15;;;;;;;14.48;8.60;;;;;;;21.79;75.09;101427.50;5052548;28;20033;-82
2022/08/19 10:48:42;;;;;;;10.93;6.88;;;;;;;21.83;75.72;101426.41;5053750;28;20029;-83
2022/08/19 10:53:52;;;;;;;13.35;7.43;;;;;;;21.99;75.08;101421.97;5052669;28;20071;-83
2022/08/19 10:59:03;;;;;;;15.45;8.60;;;;;;;22.15;74.51;101418.50;5072819;28;20384;-83
2022/08/19 11:01:30;;;;;;;13.27;7.75;;;;;;;22.28;74.95;101413.38;5072350;28;20024;-82
2022/08/19 11:03:57;;;;;;;11.98;7.05;;;;;;;22.42;74.34;101409.97;5072278;28;20025;-82
2022/08/19 11:06:22;;;;;;;;;;;;;;;22.53;73.92;101423.44;5073080;28;20487;-83
2022/08/19 11:08:48;;;;;;;;;;;;;;;22.58;73.36;101413.47;5072447;28;20003;-84
2022/08/19 11:11:13;;;;;;;13.63;8.07;;;;;;;22.57;73.15;101419.72;5071094;28;19920;-83
2022/08/19 11:13:40;;;;;;;12.00;7.00;;;;;;;22.59;73.23;101415.19;5072630;28;20028;-82
2022/08/19 11:16:14;;;;;;;11.50;6.80;;;;;;;22.64;73.41;101417.56;5070076;28;20028;-82
2022/08/19 11:18:45;;;;;;;12.52;7.18;;;;;;;22.67;73.68;101420.88;5072422;28;20488;-82
2022/08/19 11:21:18;;;;;;;12.95;7.38;;;;;;;22.70;73.10;101419.00;5072364;28;20033;-82
2022/08/19 11:23:46;;;;;;;13.68;7.85;;;;;;;22.70;72.09;101414.56;5072482;28;20039;-82
2022/08/19 11:26:12;;;;;;;13.68;7.97;;;;;;;22.70;71.56;101419.84;5072294;28;20023;-83
2022/08/19 11:28:38;;;;;;;12.17;6.70;;;;;;;22.77;73.03;101417.69;5071471;28;20468;-83
2022/08/19 11:31:03;;;;;;;9.32;6.07;;;;;;;22.99;72.99;101420.81;5069536;28;20024;-82
2022/08/19 11:33:30;;;;;;;9.80;6.13;;;;;;;23.09;70.90;101410.53;5072438;28;20419;-82
2022/08/19 11:36:00;;;;;;;11.27;6.80;;;;;;;23.18;71.92;101419.72;5072215;28;20288;-82
2022/08/19 11:38:26;;;;;;;20.45;12.75;;;;;;;23.22;70.83;101401.88;5071313;28;20032;-83
2022/08/19 11:41:01;;;;;;;17.95;10.50;;;;;;;23.41;71.53;101406.94;5070068;28;20031;-83
2022/08/19 11:43:28;;;;;;;15.60;9.30;;;;;;;23.67;70.85;101397.38;5051941;28;20091;-81
2022/08/19 11:45:55;;;;;;;15.48;8.70;;;;;;;23.86;68.29;101388.25;5050941;28;20409;-82
2022/08/19 11:48:23;;;;;;;19.35;11.00;;;;;;;23.93;64.74;101391.38;5054682;28;20021;-82